Terminal Aerodrome Forecast
Issued by NWS Tampa Bay Area, FL

Home | Current Version | Previous Version | Text Only | Print | Product List | Glossary On
Versions: 1 2 3 4 5 6 7 8 9 10 11 12 13 14 15
000
FTUS42 KTBW 171700
TAFSRQ
TAF
KSRQ 171727Z 1718/1818 25007KT P6SM -RA FEW025 BKN070 OVC100
      TEMPO 1718/1721 3SM RA BKN025
     FM172100 25007KT P6SM -RA SCT025 BKN070
      TEMPO 1721/1724 3SM RA BKN025
     FM180000 26007KT P6SM VCSH SCT020 BKN080 OVC250
     FM180600 VRB03KT P6SM FEW020 SCT250
     FM181400 VRB04KT P6SM SCT030 SCT250=

USA.gov is the U.S. government's official web portal to all federal, state and local government web resources and services.